createdAt,value
2022-08-10T00:01:52.802Z,8.88
2022-08-10T00:04:22.684Z,11.23
2022-08-10T00:06:53.423Z,11.55
2022-08-10T00:09:21.941Z,11.90
2022-08-10T00:11:49.994Z,9.48
2022-08-10T00:14:18.266Z,10.60
2022-08-10T00:16:46.540Z,12.35
2022-08-10T00:19:17.261Z,11.40
2022-08-10T00:21:47.857Z,12.98
2022-08-10T00:24:20.903Z,14.23
2022-08-10T00:27:52.304Z,13.02
2022-08-10T00:29:39.623Z,12.98
2022-08-10T00:32:08.071Z,14.18
2022-08-10T00:34:38.837Z,14.43
2022-08-10T00:37:06.977Z,14.30
2022-08-10T00:39:39.545Z,12.60
2022-08-10T00:42:13.610Z,13.10
2022-08-10T00:44:45.808Z,12.32
2022-08-10T00:47:24.413Z,13.32
2022-08-10T00:50:04.160Z,13.57
2022-08-10T00:52:33.871Z,13.57
2022-08-10T00:55:04.930Z,12.63
2022-08-10T00:57:33.993Z,13.77
2022-08-10T01:00:02.523Z,12.32
2022-08-10T01:02:33.127Z,19.15
2022-08-10T01:05:05.031Z,16.85
2022-08-10T01:07:54.693Z,14.48
2022-08-10T01:10:35.216Z,16.00
2022-08-10T01:13:09.860Z,14.60
2022-08-10T01:15:44.955Z,17.17
2022-08-10T01:18:19.463Z,16.88
2022-08-10T01:21:05.114Z,15.35
2022-08-10T01:23:54.588Z,15.77
2022-08-10T01:26:43.091Z,14.50
2022-08-10T01:29:49.290Z,16.67
2022-08-10T01:32:25.355Z,16.75
2022-08-10T01:35:06.311Z,14.98
2022-08-10T01:37:40.510Z,12.73
2022-08-10T01:40:16.755Z,14.15
2022-08-10T01:42:49.335Z,13.70
2022-08-10T01:45:22.442Z,15.43
2022-08-10T01:48:16.588Z,14.82
2022-08-10T01:50:59.755Z,14.25
2022-08-10T01:53:41.005Z,14.70
2022-08-10T01:56:14.475Z,13.35
2022-08-10T01:58:45.211Z,14.48
2022-08-10T02:01:18.919Z,14.88
2022-08-10T02:04:03.567Z,15.52
2022-08-10T02:06:38.194Z,15.05
2022-08-10T02:09:08.645Z,16.30
2022-08-10T02:12:06.212Z,18.85
2022-08-10T02:14:33.895Z,16.58
2022-08-10T02:17:06.192Z,17.00
2022-08-10T02:19:40.807Z,20.70
2022-08-10T02:22:36.112Z,17.75
2022-08-10T02:25:01.443Z,19.08
2022-08-10T02:27:31.115Z,19.33
2022-08-10T02:30:01.115Z,19.10
2022-08-10T02:32:38.213Z,19.13
2022-08-10T02:35:22.026Z,18.08
2022-08-10T02:37:54.047Z,17.27
2022-08-10T02:45:02.155Z,18.73
2022-08-10T02:45:20.243Z,17.08
2022-08-10T02:46:18.247Z,18.92
2022-08-10T02:48:55.566Z,18.58
2022-08-10T02:52:07.887Z,19.65
2022-08-10T02:54:23.487Z,19.38
2022-08-10T02:56:56.461Z,18.92
2022-08-10T02:59:28.974Z,19.60
2022-08-10T03:02:11.684Z,19.83
2022-08-10T03:04:57.205Z,22.23
2022-08-10T03:07:44.064Z,18.50
2022-08-10T03:10:18.575Z,22.33
2022-08-10T03:12:52.774Z,19.65
2022-08-10T03:15:22.488Z,17.73
2022-08-10T03:17:57.812Z,21.17
2022-08-10T03:20:37.415Z,20.83
2022-08-10T03:23:12.291Z,21.50
2022-08-10T03:25:40.983Z,20.05
2022-08-10T03:28:22.301Z,21.38
2022-08-10T03:30:50.928Z,19.42
2022-08-10T03:33:21.401Z,17.20
2022-08-10T03:36:43.834Z,20.27
2022-08-10T03:38:48.715Z,20.30
2022-08-10T03:41:19.431Z,18.45
2022-08-10T03:43:49.809Z,17.65
2022-08-10T03:46:22.382Z,16.60
2022-08-10T03:48:54.142Z,17.17
2022-08-10T03:51:23.528Z,18.42
2022-08-10T03:54:04.247Z,19.73
2022-08-10T03:56:41.231Z,22.73
2022-08-10T03:59:11.299Z,18.75
2022-08-10T04:02:43.631Z,22.08
2022-08-10T04:04:28.439Z,20.35
2022-08-10T04:06:58.707Z,19.17
2022-08-10T04:09:53.220Z,16.45
2022-08-10T04:12:18.495Z,17.75
2022-08-10T04:14:49.263Z,17.63
2022-08-10T04:18:01.143Z,18.67
2022-08-10T04:20:12.883Z,18.10
2022-08-10T04:22:43.005Z,18.08
2022-08-10T04:25:15.918Z,18.02
2022-08-10T04:27:45.702Z,16.67
2022-08-10T04:30:14.020Z,18.88
2022-08-10T04:32:43.364Z,17.45
2022-08-10T04:35:15.332Z,17.00
2022-08-10T04:37:47.783Z,18.85
2022-08-10T04:40:25.325Z,22.67
2022-08-10T04:43:11.783Z,21.40
2022-08-10T04:45:50.107Z,20.27
2022-08-10T04:49:01.250Z,21.40
2022-08-10T04:51:28.205Z,18.95
2022-08-10T04:54:03.991Z,18.65
2022-08-10T04:56:39.054Z,21.40
2022-08-10T04:59:07.767Z,17.42
2022-08-10T05:02:22.035Z,20.02
2022-08-10T05:04:39.052Z,21.23
2022-08-10T05:07:15.862Z,20.25
2022-08-10T05:10:01.225Z,18.20
2022-08-10T05:12:36.410Z,21.67
2022-08-10T05:15:07.721Z,21.40
2022-08-10T05:17:36.209Z,18.35
2022-08-10T05:20:06.952Z,18.55
2022-08-10T05:22:38.913Z,18.23
2022-08-10T05:25:10.107Z,16.30
2022-08-10T05:27:40.587Z,18.55
2022-08-10T05:30:10.287Z,15.15
2022-08-10T05:32:56.081Z,14.82
2022-08-10T05:35:27.016Z,18.27
2022-08-10T05:38:13.108Z,17.63
2022-08-10T05:40:46.511Z,16.23
2022-08-10T05:43:19.240Z,16.20
2022-08-10T05:46:16.615Z,15.20
2022-08-10T05:48:57.253Z,21.30
2022-08-10T05:51:28.923Z,15.52
2022-08-10T05:54:01.891Z,13.48
2022-08-10T05:56:55.170Z,15.18
2022-08-10T06:00:11.326Z,16.75
2022-08-10T06:02:33.434Z,13.48
2022-08-10T06:05:09.036Z,15.23
2022-08-10T06:07:46.817Z,13.52
2022-08-10T06:10:31.354Z,14.93
2022-08-10T06:13:26.750Z,15.25
2022-08-10T06:16:04.561Z,14.35
2022-08-10T06:18:33.438Z,12.85
2022-08-10T06:21:03.164Z,13.27
2022-08-10T06:23:32.313Z,12.00
2022-08-10T06:26:09.961Z,10.65
2022-08-10T06:28:43.674Z,11.10
2022-08-10T06:31:46.587Z,11.18
2022-08-10T06:34:20.190Z,11.52
2022-08-10T06:36:49.243Z,13.95
2022-08-10T06:39:32.834Z,11.25
2022-08-10T06:42:15.423Z,9.68
2022-08-10T06:44:52.258Z,10.45
2022-08-10T06:47:26.665Z,9.50
2022-08-10T06:50:01.538Z,10.05
2022-08-10T06:52:34.283Z,8.23
2022-08-10T06:55:05.486Z,7.18
2022-08-10T06:57:39.726Z,10.32
2022-08-10T07:00:10.364Z,7.90
2022-08-10T07:02:45.967Z,9.50
2022-08-10T07:05:20.113Z,6.28
2022-08-10T07:07:49.533Z,9.13
2022-08-10T07:10:20.652Z,7.15
2022-08-10T07:12:51.130Z,6.22
2022-08-10T07:15:20.304Z,5.85
2022-08-10T07:17:52.181Z,5.88
2022-08-10T07:20:21.622Z,7.10
2022-08-10T07:23:08.670Z,6.80
2022-08-10T07:25:43.056Z,5.75
2022-08-10T07:28:12.050Z,6.20
2022-08-10T07:30:42.054Z,9.02
2022-08-10T07:33:13.046Z,4.32
2022-08-10T07:35:44.575Z,4.25
2022-08-10T07:38:27.951Z,4.53
2022-08-10T07:40:58.519Z,5.57
2022-08-10T07:43:28.760Z,6.80
2022-08-10T07:45:58.891Z,6.25
2022-08-10T07:48:31.904Z,5.93
2022-08-10T07:51:02.273Z,5.13
2022-08-10T07:53:34.887Z,6.07
2022-08-10T07:56:16.853Z,4.78
2022-08-10T07:58:52.656Z,5.22
2022-08-10T08:01:25.166Z,6.18
2022-08-10T08:04:05.388Z,5.32
2022-08-10T08:06:41.266Z,4.80
2022-08-10T08:09:10.270Z,5.97
2022-08-10T08:11:39.088Z,5.35
2022-08-10T08:14:08.875Z,9.85
2022-08-10T08:16:39.615Z,4.97
2022-08-10T08:19:26.462Z,8.38
2022-08-10T08:24:14.787Z,7.90
2022-08-10T08:24:45.419Z,8.00
2022-08-10T08:27:16.726Z,5.85
2022-08-10T08:29:47.876Z,10.02
2022-08-10T08:32:19.606Z,8.85
2022-08-10T08:34:51.260Z,5.22
2022-08-10T08:38:33.738Z,7.75
2022-08-10T08:40:13.062Z,7.70
2022-08-10T08:43:06.191Z,6.15
2022-08-10T08:46:00.760Z,9.20
2022-08-10T08:50:05.073Z,6.18
2022-08-10T08:52:33.260Z,8.38
2022-08-10T08:56:04.022Z,5.40
2022-08-10T08:58:09.616Z,3.83
2022-08-10T09:00:44.727Z,4.88
2022-08-10T09:03:28.127Z,7.80
2022-08-10T09:06:07.108Z,6.57
2022-08-10T09:09:01.877Z,8.38
2022-08-10T09:11:45.723Z,9.82
2022-08-10T09:14:25.794Z,6.82
2022-08-10T09:16:58.805Z,5.85
2022-08-10T09:19:36.364Z,7.90
2022-08-10T09:22:18.174Z,8.80
2022-08-10T09:25:00.215Z,8.57
2022-08-10T09:27:35.413Z,6.38
2022-08-10T09:30:08.385Z,6.95
2022-08-10T09:36:15.037Z,9.43
2022-08-10T09:36:20.492Z,8.23
2022-08-10T09:38:40.967Z,8.70
2022-08-10T09:41:21.041Z,5.05
2022-08-10T09:43:57.876Z,5.18
2022-08-10T09:46:41.144Z,6.70
2022-08-10T09:49:18.217Z,7.22
2022-08-10T09:52:03.114Z,6.15
2022-08-10T09:54:48.622Z,7.25
2022-08-10T09:57:54.695Z,8.07
2022-08-10T10:00:16.130Z,5.82
2022-08-10T10:03:00.179Z,8.10
2022-08-10T10:05:52.654Z,9.02
2022-08-10T10:08:32.406Z,6.05
2022-08-10T10:11:12.993Z,7.32
2022-08-10T10:14:03.023Z,4.97
2022-08-10T10:16:44.971Z,4.75
2022-08-10T10:19:43.826Z,7.13
2022-08-10T10:22:34.369Z,3.50
2022-08-10T10:25:19.804Z,6.00
2022-08-10T10:27:59.335Z,5.85
2022-08-10T10:30:37.568Z,8.38
2022-08-10T10:33:15.780Z,5.65
2022-08-10T10:35:52.202Z,5.00
2022-08-10T10:38:23.324Z,7.57
2022-08-10T10:41:01.662Z,7.93
2022-08-10T10:43:43.066Z,7.55
2022-08-10T10:46:45.869Z,6.28
2022-08-10T10:49:23.833Z,7.03
2022-08-10T10:52:02.042Z,4.85
2022-08-10T10:54:40.805Z,5.60
2022-08-10T10:57:16.886Z,8.60
2022-08-10T10:59:57.882Z,6.63
2022-08-10T11:02:51.189Z,4.68
2022-08-10T11:05:28.011Z,5.47
2022-08-10T11:08:01.123Z,6.40
2022-08-10T11:10:37.458Z,4.13
2022-08-10T11:14:26.219Z,7.93
2022-08-10T11:16:43.236Z,3.33
2022-08-10T11:19:19.250Z,5.88
2022-08-10T11:21:58.363Z,5.57
2022-08-10T11:24:42.938Z,3.95
2022-08-10T11:27:24.446Z,6.13
2022-08-10T11:30:01.689Z,2.40
2022-08-10T11:32:36.660Z,4.65
2022-08-10T11:35:13.480Z,3.72
2022-08-10T11:38:31.924Z,4.88
2022-08-10T11:40:46.069Z,4.45
2022-08-10T11:43:21.908Z,6.45
2022-08-10T11:45:55.884Z,4.80
2022-08-10T11:48:53.356Z,2.78
2022-08-10T11:51:29.210Z,5.00
2022-08-10T11:54:08.819Z,4.43
2022-08-10T11:56:47.065Z,3.55
2022-08-10T11:59:34.295Z,4.63
2022-08-10T12:02:03.823Z,5.35
2022-08-10T12:04:34.090Z,3.00
2022-08-10T12:10:01.712Z,3.97
2022-08-10T12:10:09.417Z,4.38
2022-08-10T12:12:46.834Z,3.65
2022-08-10T12:15:20.697Z,3.53
2022-08-10T12:17:53.474Z,4.65
2022-08-10T12:20:28.731Z,5.30
2022-08-10T12:23:03.017Z,2.75
2022-08-10T12:25:56.080Z,5.88
2022-08-10T12:28:49.400Z,7.22
2022-08-10T12:31:24.380Z,2.85
2022-08-10T12:34:05.035Z,6.32
2022-08-10T12:36:40.843Z,6.70
2022-08-10T12:39:16.242Z,8.48
2022-08-10T12:41:52.479Z,6.28
2022-08-10T12:44:41.766Z,4.22
2022-08-10T12:47:19.197Z,9.77
2022-08-10T12:50:29.532Z,5.13
2022-08-10T12:52:51.127Z,9.07
2022-08-10T12:55:22.105Z,6.30
2022-08-10T12:57:53.482Z,4.18
2022-08-10T13:00:27.706Z,8.40
2022-08-10T13:02:57.590Z,5.35
2022-08-10T13:05:28.233Z,4.35
2022-08-10T13:08:26.842Z,3.80
2022-08-10T13:11:02.883Z,6.80
2022-08-10T13:13:34.972Z,4.28
2022-08-10T13:16:04.166Z,6.10
2022-08-10T13:18:36.103Z,6.85
2022-08-10T13:21:20.283Z,6.00
2022-08-10T13:24:03.397Z,4.85
2022-08-10T13:26:38.814Z,10.45
2022-08-10T13:29:33.177Z,9.40
2022-08-10T13:32:10.623Z,3.72
2022-08-10T13:34:45.699Z,4.28
2022-08-10T13:37:16.782Z,3.65
2022-08-10T13:39:59.745Z,5.47
2022-08-10T13:42:34.067Z,4.53
2022-08-10T13:45:09.310Z,4.68
2022-08-10T13:47:48.577Z,4.70
2022-08-10T13:50:33.483Z,6.05
2022-08-10T13:53:14.358Z,4.68
2022-08-10T13:55:54.368Z,4.68
2022-08-10T13:58:30.042Z,8.02
2022-08-10T14:01:00.798Z,6.18
2022-08-10T14:03:34.734Z,3.75
2022-08-10T14:06:05.343Z,7.95
2022-08-10T14:08:35.383Z,3.03
2022-08-10T14:11:11.294Z,6.18
2022-08-10T14:13:46.481Z,4.53
2022-08-10T14:16:15.000Z,7.03
2022-08-10T14:18:46.561Z,8.15
2022-08-10T14:21:26.027Z,6.60
2022-08-10T14:23:55.571Z,7.68
2022-08-10T14:26:28.174Z,4.80
2022-08-10T14:29:03.159Z,6.10
2022-08-10T14:31:34.667Z,6.80
2022-08-10T14:34:08.681Z,5.75
2022-08-10T14:36:43.327Z,3.63
2022-08-10T14:39:20.769Z,3.88
2022-08-10T14:42:04.261Z,7.25
2022-08-10T14:44:46.713Z,7.47
2022-08-10T14:47:53.623Z,3.30
2022-08-10T14:50:32.316Z,4.15
2022-08-10T14:53:09.749Z,4.45
2022-08-10T14:55:59.138Z,3.90
2022-08-10T14:58:33.040Z,3.85
2022-08-10T15:01:07.464Z,8.88
2022-08-10T15:04:01.798Z,5.05
2022-08-10T15:06:42.919Z,6.13
2022-08-10T15:09:19.881Z,5.95
2022-08-10T15:12:13.732Z,5.28
2022-08-10T15:14:44.719Z,6.30
2022-08-10T15:17:26.321Z,4.15
2022-08-10T15:20:02.231Z,6.72
2022-08-10T15:22:38.680Z,7.30
2022-08-10T15:25:18.942Z,5.75
2022-08-10T15:27:55.724Z,2.22
2022-08-10T15:30:32.442Z,4.03
2022-08-10T15:33:57.742Z,5.47
2022-08-10T15:36:35.254Z,5.40
2022-08-10T15:39:14.156Z,4.68
2022-08-10T15:42:07.220Z,5.45
2022-08-10T15:44:39.661Z,4.50
2022-08-10T15:47:12.621Z,5.30
2022-08-10T15:49:58.885Z,5.30
2022-08-10T15:53:00.535Z,6.32
2022-08-10T15:55:43.487Z,7.78
2022-08-10T15:58:30.283Z,4.93
2022-08-10T16:02:12.441Z,3.17
2022-08-10T16:04:08.373Z,6.00
2022-08-10T16:06:42.855Z,6.07
2022-08-10T16:10:26.307Z,5.72
2022-08-10T16:12:09.947Z,4.07
2022-08-10T16:14:39.991Z,5.15
2022-08-10T16:17:11.761Z,6.20
2022-08-10T16:19:48.762Z,5.95
2022-08-10T16:22:36.680Z,3.88
2022-08-10T16:25:14.133Z,5.60
2022-08-10T16:27:45.430Z,5.75
2022-08-10T16:30:14.589Z,3.75
2022-08-10T16:32:46.613Z,6.60
2022-08-10T16:35:20.614Z,4.43
2022-08-10T16:37:57.035Z,5.47
2022-08-10T16:40:29.881Z,8.18
2022-08-10T16:43:00.916Z,3.08
2022-08-10T16:45:41.131Z,5.63
2022-08-10T16:48:11.263Z,3.78
2022-08-10T16:50:45.354Z,6.85
2022-08-10T16:53:17.843Z,7.35
2022-08-10T16:55:50.479Z,7.65
2022-08-10T16:58:27.342Z,6.47
2022-08-10T17:01:03.707Z,4.78
2022-08-10T17:04:05.464Z,5.40
2022-08-10T17:06:30.325Z,5.78
2022-08-10T17:09:01.832Z,3.42
2022-08-10T17:11:32.143Z,6.85
2022-08-10T17:14:02.452Z,4.85
2022-08-10T17:16:36.799Z,4.68
2022-08-10T17:19:11.847Z,4.47
2022-08-10T17:21:51.651Z,6.70
2022-08-10T17:24:25.152Z,5.40
2022-08-10T17:26:56.983Z,7.20
2022-08-10T17:29:58.141Z,7.68
2022-08-10T17:32:25.101Z,6.32
2022-08-10T17:34:57.848Z,7.75
2022-08-10T17:37:31.668Z,4.45
2022-08-10T17:40:07.084Z,7.63
2022-08-10T17:42:37.223Z,9.95
2022-08-10T17:45:08.107Z,6.32
2022-08-10T17:47:36.382Z,7.93
2022-08-10T17:50:05.052Z,6.47
2022-08-10T17:52:34.189Z,8.32
2022-08-10T17:55:07.219Z,6.20
2022-08-10T17:57:38.510Z,8.45
2022-08-10T18:00:13.530Z,8.88
2022-08-10T18:02:44.653Z,6.65
2022-08-10T18:05:14.346Z,6.07
2022-08-10T18:07:48.371Z,4.40
2022-08-10T18:10:22.541Z,12.40
2022-08-10T18:12:54.279Z,8.73
2022-08-10T18:15:24.559Z,4.65
2022-08-10T18:17:59.213Z,4.72
2022-08-10T18:20:33.643Z,6.03
2022-08-10T18:23:04.166Z,7.22
2022-08-10T18:25:36.222Z,5.88
2022-08-10T18:28:09.026Z,5.93
2022-08-10T18:30:48.030Z,4.75
2022-08-10T18:33:17.512Z,10.45
2022-08-10T18:35:46.643Z,5.75
2022-08-10T18:38:17.336Z,7.57
2022-08-10T18:40:54.173Z,7.07
2022-08-10T18:44:06.062Z,4.68
2022-08-10T18:46:18.368Z,5.93
2022-08-10T18:48:50.931Z,5.00
2022-08-10T18:51:25.879Z,5.15
2022-08-10T18:53:58.649Z,5.78
2022-08-10T18:56:39.518Z,7.75
2022-08-10T18:59:29.225Z,5.75
2022-08-10T19:02:13.474Z,3.95
2022-08-10T19:05:02.413Z,7.95
2022-08-10T19:07:50.351Z,5.50
2022-08-10T19:10:35.311Z,5.80
2022-08-10T19:13:14.663Z,6.10
2022-08-10T19:15:49.575Z,6.63
2022-08-10T19:18:29.298Z,5.45
2022-08-10T19:21:03.530Z,5.95
2022-08-10T19:23:40.668Z,4.13
2022-08-10T19:26:42.617Z,6.97
2022-08-10T19:30:10.035Z,4.68
2022-08-10T19:32:38.647Z,6.93
2022-08-10T19:35:12.076Z,5.80
2022-08-10T19:37:59.994Z,6.80
2022-08-10T19:40:43.356Z,6.72
2022-08-10T19:43:30.573Z,6.32
2022-08-10T19:46:11.032Z,6.97
2022-08-10T19:48:45.826Z,5.97
2022-08-10T19:51:19.466Z,5.50
2022-08-10T19:53:57.155Z,6.10
2022-08-10T19:56:34.683Z,4.43
2022-08-10T19:59:10.012Z,7.80
2022-08-10T20:01:54.458Z,5.97
2022-08-10T20:04:29.717Z,8.35
2022-08-10T20:07:11.601Z,5.82
2022-08-10T20:09:47.235Z,8.82
2022-08-10T20:12:21.398Z,5.10
2022-08-10T20:14:57.962Z,6.70
2022-08-10T20:17:51.541Z,6.40
2022-08-10T20:20:31.069Z,6.85
2022-08-10T20:23:08.958Z,8.95
2022-08-10T20:25:37.301Z,5.07
2022-08-10T20:28:14.455Z,9.25
2022-08-10T20:30:47.759Z,7.38
2022-08-10T20:33:27.287Z,9.52
2022-08-10T20:36:02.472Z,11.02
2022-08-10T20:38:35.282Z,7.22
2022-08-10T20:41:13.106Z,6.82
2022-08-10T20:43:53.673Z,7.32
2022-08-10T20:46:28.511Z,8.80
2022-08-10T20:49:02.322Z,7.90
2022-08-10T20:51:57.909Z,7.60
2022-08-10T20:54:32.977Z,9.88
2022-08-10T20:57:55.683Z,7.40
2022-08-10T21:00:11.089Z,10.38
2022-08-10T21:03:00.796Z,10.63
2022-08-10T21:05:52.810Z,11.43
2022-08-10T21:08:35.168Z,11.57
2022-08-10T21:11:09.084Z,12.32
2022-08-10T21:14:02.046Z,9.05
2022-08-10T21:16:50.513Z,11.63
2022-08-10T21:19:36.021Z,8.65
2022-08-10T21:22:12.762Z,10.60
2022-08-10T21:24:52.070Z,11.23
2022-08-10T21:27:49.127Z,10.10
2022-08-10T21:30:40.360Z,8.27
2022-08-10T21:33:12.594Z,10.50
2022-08-10T21:35:44.827Z,11.00
2022-08-10T21:38:27.180Z,8.60
2022-08-10T21:41:57.294Z,6.93
2022-08-10T21:44:52.963Z,9.05
2022-08-10T21:48:06.966Z,14.52
2022-08-10T21:51:02.205Z,14.30
2022-08-10T21:53:57.059Z,11.30
2022-08-10T21:56:47.747Z,9.75
2022-08-10T21:59:49.245Z,8.82
2022-08-10T22:02:50.074Z,10.55
2022-08-10T22:05:42.384Z,12.40
2022-08-10T22:08:31.149Z,10.32
2022-08-10T22:11:20.165Z,9.85
2022-08-10T22:14:09.654Z,11.52
2022-08-10T22:17:03.879Z,10.82
2022-08-10T22:19:53.155Z,11.30
2022-08-10T22:22:56.009Z,12.60
2022-08-10T22:25:55.535Z,9.63
2022-08-10T22:28:48.814Z,11.20
2022-08-10T22:31:53.674Z,10.00
2022-08-10T22:34:58.072Z,13.98
2022-08-10T22:37:57.485Z,11.60
2022-08-10T22:40:44.010Z,11.70
2022-08-10T22:43:38.668Z,11.90
2022-08-10T22:46:33.961Z,9.98
2022-08-10T22:49:01.299Z,10.18
2022-08-10T22:51:52.038Z,10.98
2022-08-10T22:54:45.168Z,11.88
2022-08-10T22:57:32.330Z,10.75
2022-08-10T23:00:10.045Z,11.70
2022-08-10T23:02:40.203Z,12.23
2022-08-10T23:05:12.567Z,14.07
2022-08-10T23:07:48.309Z,12.13
2022-08-10T23:10:18.954Z,12.82
2022-08-10T23:12:50.949Z,9.90
2022-08-10T23:15:42.890Z,12.80
2022-08-10T23:18:36.387Z,11.23
2022-08-10T23:21:05.911Z,10.98
2022-08-10T23:23:39.590Z,11.43
2022-08-10T23:26:10.490Z,12.32
2022-08-10T23:28:59.877Z,14.70
2022-08-10T23:31:59.195Z,10.80
2022-08-10T23:34:25.497Z,11.02
2022-08-10T23:36:55.204Z,10.77
2022-08-10T23:39:32.567Z,13.27
2022-08-10T23:42:07.699Z,11.90
2022-08-10T23:44:45.905Z,12.05
2022-08-10T23:47:17.040Z,10.20
2022-08-10T23:49:49.045Z,10.43
2022-08-10T23:52:21.835Z,12.15
2022-08-10T23:54:53.810Z,12.20
2022-08-10T23:57:25.796Z,11.68
2022-08-10T23:59:57.999Z,14.40
